DAL1343 KDTW-KMKE
Flight info
| Callsign | DAL1343 |
|---|---|
| Flight time | 0h 48m |
| Altitude | 23000 |
| Route | MIGGY3 GETCH LYSTR SUDDS |
| Aircraft | A319/M-SDE3FGHIRWY/LB1 |
Departure
| Time | 2026-04-23 03:00 |
|---|---|
| Airport | Detroit Metropolitan Wayne County Airport (KDTW) |
Arrival
| Time | 2026-04-23 03:48 |
|---|---|
| Airport | General Mitchell International Airport (KMKE) |
| Time | Latitude | Longitude | Altitude | Speed | Heading |
|---|---|---|---|---|---|
| 2026-04-23 02:31 | 42.21152 | -83.35633 | 648 ft | 0 kts | 119° |
| 2026-04-23 02:50 | 42.21158 | -83.35649 | 649 ft | 4 kts | 119° |
| 2026-04-23 02:50 | 42.21171 | -83.35680 | 652 ft | 3 kts | 119° |
| 2026-04-23 02:50 | 42.21180 | -83.35706 | 649 ft | 4 kts | 102° |
| 2026-04-23 02:50 | 42.21179 | -83.35738 | 651 ft | 4 kts | 50° |
| 2026-04-23 02:51 | 42.21160 | -83.35756 | 650 ft | 3 kts | 28° |
| 2026-04-23 02:51 | 42.21157 | -83.35758 | 649 ft | 0 kts | 28° |
| 2026-04-23 02:54 | 42.21160 | -83.35756 | 639 ft | 2 kts | 28° |
| 2026-04-23 02:54 | 42.21202 | -83.35725 | 648 ft | 12 kts | 29° |
| 2026-04-23 02:55 | 42.21287 | -83.35661 | 647 ft | 15 kts | 28° |
| 2026-04-23 02:55 | 42.21380 | -83.35594 | 647 ft | 15 kts | 28° |
| 2026-04-23 02:55 | 42.21476 | -83.35523 | 648 ft | 16 kts | 29° |
| 2026-04-23 02:55 | 42.21547 | -83.35440 | 647 ft | 13 kts | 76° |
| 2026-04-23 02:56 | 42.21550 | -83.35312 | 647 ft | 14 kts | 89° |
| 2026-04-23 02:56 | 42.21551 | -83.35182 | 647 ft | 10 kts | 89° |
| 2026-04-23 02:56 | 42.21519 | -83.35104 | 647 ft | 11 kts | 146° |
| 2026-04-23 02:56 | 42.21437 | -83.35035 | 647 ft | 18 kts | 149° |
| 2026-04-23 02:57 | 42.21331 | -83.34949 | 649 ft | 15 kts | 149° |
| 2026-04-23 02:57 | 42.21251 | -83.34947 | 646 ft | 12 kts | 209° |
| 2026-04-23 02:57 | 42.21176 | -83.35003 | 647 ft | 13 kts | 208° |
| 2026-04-23 02:57 | 42.21096 | -83.35062 | 648 ft | 13 kts | 208° |
| 2026-04-23 02:58 | 42.21015 | -83.35122 | 647 ft | 14 kts | 208° |
| 2026-04-23 02:58 | 42.20932 | -83.35183 | 648 ft | 14 kts | 209° |
| 2026-04-23 02:58 | 42.20857 | -83.35229 | 647 ft | 9 kts | 175° |
| 2026-04-23 02:58 | 42.20816 | -83.35160 | 646 ft | 11 kts | 119° |
| 2026-04-23 02:59 | 42.20815 | -83.35100 | 645 ft | 5 kts | 48° |
| 2026-04-23 02:59 | 42.20841 | -83.35080 | 645 ft | 5 kts | 28° |
| 2026-04-23 02:59 | 42.20921 | -83.35021 | 644 ft | 39 kts | 29° |
| 2026-04-23 02:59 | 42.21392 | -83.34674 | 644 ft | 112 kts | 28° |
| 2026-04-23 03:00 | 42.22243 | -83.34048 | 744 ft | 156 kts | 30° |
| 2026-04-23 03:00 | 42.23162 | -83.33364 | 1511 ft | 149 kts | 31° |
| 2026-04-23 03:00 | 42.24071 | -83.32698 | 2215 ft | 149 kts | 31° |
| 2026-04-23 03:00 | 42.25121 | -83.32328 | 2670 ft | 169 kts | 4° |
| 2026-04-23 03:01 | 42.26373 | -83.32416 | 3004 ft | 192 kts | 357° |
| 2026-04-23 03:01 | 42.27793 | -83.32539 | 3316 ft | 218 kts | 355° |
| 2026-04-23 03:01 | 42.29417 | -83.32676 | 3621 ft | 250 kts | 355° |
| 2026-04-23 03:01 | 42.31233 | -83.32826 | 3927 ft | 268 kts | 355° |
| 2026-04-23 03:02 | 42.33107 | -83.32977 | 4228 ft | 270 kts | 355° |
| 2026-04-23 03:02 | 42.34981 | -83.33123 | 4528 ft | 270 kts | 354° |
| 2026-04-23 03:02 | 42.36856 | -83.33270 | 4848 ft | 270 kts | 354° |
| 2026-04-23 03:02 | 42.38729 | -83.33419 | 5162 ft | 269 kts | 354° |
| 2026-04-23 03:03 | 42.40598 | -83.33568 | 5490 ft | 269 kts | 354° |
| 2026-04-23 03:03 | 42.42466 | -83.33716 | 5821 ft | 269 kts | 354° |
| 2026-04-23 03:03 | 42.44335 | -83.33864 | 6168 ft | 270 kts | 354° |
| 2026-04-23 03:03 | 42.46212 | -83.34013 | 7152 ft | 270 kts | 354° |
| 2026-04-23 03:04 | 42.48062 | -83.34358 | 8163 ft | 269 kts | 342° |
| 2026-04-23 03:04 | 42.49754 | -83.35427 | 9155 ft | 270 kts | 326° |
| 2026-04-23 03:04 | 42.51131 | -83.37172 | 10130 ft | 274 kts | 311° |
| 2026-04-23 03:04 | 42.52315 | -83.39225 | 10907 ft | 283 kts | 310° |
| 2026-04-23 03:05 | 42.53575 | -83.41408 | 11245 ft | 305 kts | 310° |
| 2026-04-23 03:05 | 42.54913 | -83.43722 | 11870 ft | 316 kts | 310° |
| 2026-04-23 03:05 | 42.56281 | -83.46086 | 12612 ft | 321 kts | 309° |
| 2026-04-23 03:05 | 42.57651 | -83.48457 | 13383 ft | 326 kts | 309° |
| 2026-04-23 03:06 | 42.59063 | -83.50899 | 14119 ft | 331 kts | 309° |
| 2026-04-23 03:06 | 42.60489 | -83.53385 | 14817 ft | 335 kts | 309° |
| 2026-04-23 03:06 | 42.61912 | -83.55908 | 15550 ft | 338 kts | 308° |
| 2026-04-23 03:06 | 42.63340 | -83.58462 | 16275 ft | 341 kts | 308° |
| 2026-04-23 03:07 | 42.64775 | -83.61039 | 16971 ft | 344 kts | 308° |
| 2026-04-23 03:07 | 42.66228 | -83.63648 | 17631 ft | 349 kts | 308° |
| 2026-04-23 03:07 | 42.67709 | -83.66307 | 18215 ft | 356 kts | 308° |
| 2026-04-23 03:07 | 42.69213 | -83.69006 | 18813 ft | 360 kts | 308° |
| 2026-04-23 03:08 | 42.70728 | -83.71722 | 19443 ft | 362 kts | 308° |
| 2026-04-23 03:08 | 42.72255 | -83.74457 | 20073 ft | 364 kts | 309° |
| 2026-04-23 03:08 | 42.73789 | -83.77210 | 20706 ft | 366 kts | 309° |
| 2026-04-23 03:08 | 42.75329 | -83.79987 | 21336 ft | 368 kts | 309° |
| 2026-04-23 03:09 | 42.76875 | -83.82780 | 21968 ft | 371 kts | 309° |
| 2026-04-23 03:09 | 42.78466 | -83.85548 | 22590 ft | 372 kts | 313° |
| 2026-04-23 03:09 | 42.80294 | -83.88043 | 22973 ft | 373 kts | 317° |
| 2026-04-23 03:09 | 42.82156 | -83.90496 | 23052 ft | 373 kts | 317° |
| 2026-04-23 03:10 | 42.84018 | -83.92950 | 23054 ft | 373 kts | 317° |
| 2026-04-23 03:10 | 42.85885 | -83.95410 | 23061 ft | 373 kts | 317° |
| 2026-04-23 03:10 | 42.87746 | -83.97872 | 23056 ft | 372 kts | 317° |
| 2026-04-23 03:10 | 42.89600 | -84.00329 | 23070 ft | 371 kts | 317° |
| 2026-04-23 03:11 | 42.91450 | -84.02783 | 23071 ft | 371 kts | 317° |
| 2026-04-23 03:11 | 42.93300 | -84.05237 | 23073 ft | 371 kts | 317° |
| 2026-04-23 03:11 | 42.95151 | -84.07696 | 23072 ft | 371 kts | 317° |
| 2026-04-23 03:11 | 42.96973 | -84.10127 | 23073 ft | 371 kts | 317° |
| 2026-04-23 03:12 | 42.98818 | -84.12589 | 23072 ft | 371 kts | 317° |
| 2026-04-23 03:12 | 43.00666 | -84.15055 | 23072 ft | 371 kts | 317° |
| 2026-04-23 03:12 | 43.02511 | -84.17515 | 23071 ft | 371 kts | 317° |
| 2026-04-23 03:12 | 43.04359 | -84.19978 | 23070 ft | 371 kts | 317° |
| 2026-04-23 03:13 | 43.06205 | -84.22442 | 23069 ft | 371 kts | 317° |
| 2026-04-23 03:13 | 43.08050 | -84.24909 | 23067 ft | 371 kts | 317° |
| 2026-04-23 03:13 | 43.09892 | -84.27375 | 23080 ft | 370 kts | 317° |
| 2026-04-23 03:13 | 43.11731 | -84.29838 | 23065 ft | 370 kts | 317° |
| 2026-04-23 03:14 | 43.13570 | -84.32303 | 23065 ft | 370 kts | 317° |
| 2026-04-23 03:14 | 43.15407 | -84.34769 | 23063 ft | 370 kts | 317° |
| 2026-04-23 03:14 | 43.17241 | -84.37236 | 23060 ft | 370 kts | 317° |
| 2026-04-23 03:14 | 43.19074 | -84.39704 | 23056 ft | 370 kts | 317° |
| 2026-04-23 03:15 | 43.20885 | -84.42201 | 23055 ft | 370 kts | 313° |
| 2026-04-23 03:15 | 43.22373 | -84.45085 | 23056 ft | 373 kts | 301° |
| 2026-04-23 03:15 | 43.23366 | -84.48392 | 23056 ft | 378 kts | 289° |
| 2026-04-23 03:15 | 43.23787 | -84.51969 | 23059 ft | 384 kts | 276° |
| 2026-04-23 03:16 | 43.23700 | -84.55654 | 23054 ft | 387 kts | 271° |
| 2026-04-23 03:16 | 43.23549 | -84.59336 | 23053 ft | 387 kts | 271° |
| 2026-04-23 03:16 | 43.23256 | -84.66715 | 23052 ft | 387 kts | 271° |
| 2026-04-23 03:17 | 43.23114 | -84.70356 | 23046 ft | 388 kts | 271° |
| 2026-04-23 03:17 | 43.22967 | -84.74047 | 23047 ft | 388 kts | 271° |
| 2026-04-23 03:17 | 43.22819 | -84.77734 | 23048 ft | 388 kts | 271° |
| 2026-04-23 03:17 | 43.22669 | -84.81424 | 23049 ft | 388 kts | 271° |
| 2026-04-23 03:18 | 43.22515 | -84.85118 | 23048 ft | 388 kts | 271° |
| 2026-04-23 03:18 | 43.22360 | -84.88803 | 23047 ft | 388 kts | 271° |
| 2026-04-23 03:18 | 43.22205 | -84.92495 | 23047 ft | 388 kts | 271° |
| 2026-04-23 03:18 | 43.22049 | -84.96183 | 23046 ft | 388 kts | 271° |
| 2026-04-23 03:19 | 43.21889 | -84.99878 | 23042 ft | 388 kts | 271° |
| 2026-04-23 03:19 | 43.21728 | -85.03565 | 23040 ft | 388 kts | 271° |
| 2026-04-23 03:19 | 43.21568 | -85.07253 | 23029 ft | 388 kts | 271° |
| 2026-04-23 03:19 | 43.21406 | -85.10948 | 23028 ft | 388 kts | 271° |
| 2026-04-23 03:20 | 43.21242 | -85.14636 | 23022 ft | 388 kts | 270° |
| 2026-04-23 03:20 | 43.21076 | -85.18333 | 23022 ft | 388 kts | 270° |
| 2026-04-23 03:20 | 43.20911 | -85.22021 | 23023 ft | 388 kts | 270° |
| 2026-04-23 03:20 | 43.20744 | -85.25718 | 23024 ft | 388 kts | 270° |
| 2026-04-23 03:21 | 43.20576 | -85.29410 | 23020 ft | 388 kts | 270° |
| 2026-04-23 03:21 | 43.20408 | -85.33103 | 23021 ft | 388 kts | 270° |
| 2026-04-23 03:21 | 43.20237 | -85.36801 | 23021 ft | 388 kts | 270° |
| 2026-04-23 03:21 | 43.20065 | -85.40490 | 23022 ft | 388 kts | 270° |
| 2026-04-23 03:22 | 43.19891 | -85.44186 | 23006 ft | 388 kts | 270° |
| 2026-04-23 03:22 | 43.19716 | -85.47879 | 23007 ft | 389 kts | 270° |
| 2026-04-23 03:22 | 43.19541 | -85.51581 | 23008 ft | 389 kts | 270° |
| 2026-04-23 03:22 | 43.19367 | -85.55233 | 23009 ft | 389 kts | 270° |
| 2026-04-23 03:23 | 43.19191 | -85.58935 | 23006 ft | 389 kts | 270° |
| 2026-04-23 03:23 | 43.19012 | -85.62636 | 23006 ft | 390 kts | 270° |
| 2026-04-23 03:23 | 43.18831 | -85.66341 | 23009 ft | 390 kts | 270° |
| 2026-04-23 03:23 | 43.18650 | -85.70046 | 23013 ft | 390 kts | 270° |
| 2026-04-23 03:24 | 43.18466 | -85.73754 | 23013 ft | 390 kts | 270° |
| 2026-04-23 03:24 | 43.18282 | -85.77458 | 23014 ft | 390 kts | 270° |
| 2026-04-23 03:24 | 43.18097 | -85.81161 | 23016 ft | 390 kts | 270° |
| 2026-04-23 03:24 | 43.17912 | -85.84866 | 23018 ft | 390 kts | 270° |
| 2026-04-23 03:25 | 43.17724 | -85.88575 | 23028 ft | 390 kts | 270° |
| 2026-04-23 03:25 | 43.17537 | -85.92278 | 23029 ft | 390 kts | 270° |
| 2026-04-23 03:25 | 43.17349 | -85.95980 | 23035 ft | 390 kts | 270° |
| 2026-04-23 03:25 | 43.17157 | -85.99687 | 23037 ft | 390 kts | 270° |
| 2026-04-23 03:26 | 43.16963 | -86.03390 | 23039 ft | 390 kts | 270° |
| 2026-04-23 03:26 | 43.16789 | -86.07095 | 23042 ft | 389 kts | 271° |
| 2026-04-23 03:26 | 43.16696 | -86.10800 | 23045 ft | 389 kts | 272° |
| 2026-04-23 03:26 | 43.16655 | -86.14499 | 23045 ft | 388 kts | 273° |
| 2026-04-23 03:27 | 43.16634 | -86.18197 | 23039 ft | 388 kts | 273° |
| 2026-04-23 03:27 | 43.16615 | -86.21893 | 23027 ft | 388 kts | 273° |
| 2026-04-23 03:27 | 43.16598 | -86.24343 | 23026 ft | 389 kts | 272° |
| 2026-04-23 03:27 | 43.16562 | -86.28052 | 22990 ft | 389 kts | 272° |
| 2026-04-23 03:28 | 43.16511 | -86.31717 | 22726 ft | 382 kts | 272° |
| 2026-04-23 03:28 | 43.16448 | -86.35340 | 22464 ft | 379 kts | 272° |
| 2026-04-23 03:28 | 43.16381 | -86.38947 | 22202 ft | 378 kts | 272° |
| 2026-04-23 03:28 | 43.16318 | -86.42531 | 21943 ft | 376 kts | 272° |
| 2026-04-23 03:29 | 43.16255 | -86.46109 | 21687 ft | 374 kts | 272° |
| 2026-04-23 03:29 | 43.16192 | -86.49637 | 21321 ft | 368 kts | 272° |
| 2026-04-23 03:29 | 43.16129 | -86.53123 | 20874 ft | 364 kts | 272° |
| 2026-04-23 03:29 | 43.16065 | -86.56576 | 20412 ft | 362 kts | 272° |
| 2026-04-23 03:30 | 43.16006 | -86.60008 | 19954 ft | 358 kts | 272° |
| 2026-04-23 03:30 | 43.15951 | -86.63408 | 19487 ft | 356 kts | 272° |
| 2026-04-23 03:30 | 43.15895 | -86.66793 | 19029 ft | 355 kts | 272° |
| 2026-04-23 03:30 | 43.15835 | -86.70162 | 18564 ft | 353 kts | 272° |
| 2026-04-23 03:31 | 43.15772 | -86.73523 | 18059 ft | 352 kts | 272° |
| 2026-04-23 03:31 | 43.15707 | -86.76869 | 17559 ft | 350 kts | 272° |
| 2026-04-23 03:31 | 43.15639 | -86.80188 | 17109 ft | 348 kts | 272° |
| 2026-04-23 03:31 | 43.15573 | -86.83485 | 16658 ft | 345 kts | 272° |
| 2026-04-23 03:32 | 43.15508 | -86.86757 | 16210 ft | 343 kts | 271° |
| 2026-04-23 03:32 | 43.15442 | -86.90006 | 15771 ft | 341 kts | 271° |
| 2026-04-23 03:32 | 43.15376 | -86.93245 | 15333 ft | 339 kts | 271° |
| 2026-04-23 03:32 | 43.15307 | -86.96459 | 14898 ft | 337 kts | 271° |
| 2026-04-23 03:33 | 43.15235 | -86.99668 | 14460 ft | 336 kts | 271° |
| 2026-04-23 03:33 | 43.15162 | -87.02865 | 14023 ft | 335 kts | 271° |
| 2026-04-23 03:33 | 43.15092 | -87.06064 | 13716 ft | 338 kts | 271° |
| 2026-04-23 03:33 | 43.15021 | -87.09280 | 13425 ft | 338 kts | 271° |
| 2026-04-23 03:34 | 43.14950 | -87.12491 | 13140 ft | 337 kts | 271° |
| 2026-04-23 03:34 | 43.14879 | -87.15649 | 12850 ft | 335 kts | 270° |
| 2026-04-23 03:34 | 43.14804 | -87.18833 | 12567 ft | 334 kts | 270° |
| 2026-04-23 03:34 | 43.14728 | -87.22002 | 12285 ft | 332 kts | 270° |
| 2026-04-23 03:35 | 43.14652 | -87.25160 | 11999 ft | 331 kts | 270° |
| 2026-04-23 03:35 | 43.14574 | -87.28301 | 11722 ft | 329 kts | 270° |
| 2026-04-23 03:35 | 43.14496 | -87.31428 | 11439 ft | 328 kts | 270° |
| 2026-04-23 03:35 | 43.14418 | -87.34540 | 11160 ft | 326 kts | 269° |
| 2026-04-23 03:36 | 43.14107 | -87.37609 | 10881 ft | 326 kts | 256° |
| 2026-04-23 03:36 | 43.13447 | -87.40575 | 10604 ft | 325 kts | 253° |
| 2026-04-23 03:36 | 43.12779 | -87.43514 | 10356 ft | 319 kts | 253° |
| 2026-04-23 03:36 | 43.12138 | -87.46351 | 10235 ft | 306 kts | 253° |
| 2026-04-23 03:37 | 43.11525 | -87.49081 | 10088 ft | 295 kts | 253° |
| 2026-04-23 03:37 | 43.10929 | -87.51737 | 9884 ft | 288 kts | 253° |
| 2026-04-23 03:37 | 43.10340 | -87.54358 | 9746 ft | 288 kts | 253° |
| 2026-04-23 03:37 | 43.09752 | -87.56969 | 9507 ft | 287 kts | 253° |
| 2026-04-23 03:38 | 43.09164 | -87.59570 | 9265 ft | 286 kts | 253° |
| 2026-04-23 03:38 | 43.08578 | -87.62158 | 9027 ft | 284 kts | 253° |
| 2026-04-23 03:38 | 43.07993 | -87.64741 | 8780 ft | 283 kts | 253° |
| 2026-04-23 03:38 | 43.07412 | -87.67308 | 8541 ft | 282 kts | 253° |
| 2026-04-23 03:39 | 43.06827 | -87.69871 | 8302 ft | 282 kts | 252° |
| 2026-04-23 03:39 | 43.06246 | -87.72418 | 8061 ft | 281 kts | 252° |
| 2026-04-23 03:39 | 43.05664 | -87.74967 | 7824 ft | 280 kts | 252° |
| 2026-04-23 03:39 | 43.05084 | -87.77505 | 7582 ft | 279 kts | 252° |
| 2026-04-23 03:40 | 43.04504 | -87.80034 | 7341 ft | 278 kts | 252° |
| 2026-04-23 03:40 | 43.03924 | -87.82555 | 7109 ft | 278 kts | 251° |
| 2026-04-23 03:40 | 43.03346 | -87.85070 | 6876 ft | 277 kts | 251° |
| 2026-04-23 03:40 | 43.02774 | -87.87565 | 6637 ft | 272 kts | 251° |
| 2026-04-23 03:41 | 43.02218 | -87.89989 | 6428 ft | 262 kts | 251° |
| 2026-04-23 03:41 | 43.01687 | -87.92303 | 6339 ft | 249 kts | 251° |
| 2026-04-23 03:41 | 43.01182 | -87.94501 | 6232 ft | 237 kts | 251° |
| 2026-04-23 03:41 | 43.00695 | -87.96618 | 6134 ft | 231 kts | 251° |
| 2026-04-23 03:42 | 43.00213 | -87.98708 | 6029 ft | 230 kts | 251° |
| 2026-04-23 03:42 | 42.99724 | -88.00792 | 5835 ft | 231 kts | 250° |
| 2026-04-23 03:42 | 42.99217 | -88.02868 | 5540 ft | 229 kts | 250° |
| 2026-04-23 03:42 | 42.98719 | -88.04894 | 5275 ft | 227 kts | 250° |
| 2026-04-23 03:43 | 42.98212 | -88.06960 | 5026 ft | 226 kts | 250° |
| 2026-04-23 03:43 | 42.97624 | -88.08942 | 4653 ft | 227 kts | 237° |
| 2026-04-23 03:43 | 42.96558 | -88.10545 | 4060 ft | 230 kts | 215° |
| 2026-04-23 03:43 | 42.95174 | -88.11437 | 3889 ft | 210 kts | 195° |
| 2026-04-23 03:44 | 42.93788 | -88.11645 | 3832 ft | 200 kts | 178° |
| 2026-04-23 03:44 | 42.92434 | -88.11228 | 3760 ft | 198 kts | 160° |
| 2026-04-23 03:44 | 42.91330 | -88.10180 | 3470 ft | 191 kts | 137° |
| 2026-04-23 03:44 | 42.90630 | -88.08685 | 3225 ft | 186 kts | 115° |
| 2026-04-23 03:45 | 42.90384 | -88.06970 | 3002 ft | 185 kts | 92° |
| 2026-04-23 03:45 | 42.90601 | -88.05276 | 2786 ft | 184 kts | 73° |
| 2026-04-23 03:45 | 42.91013 | -88.03633 | 2544 ft | 182 kts | 74° |
| 2026-04-23 03:45 | 42.91409 | -88.02018 | 2300 ft | 175 kts | 74° |
| 2026-04-23 03:46 | 42.91774 | -88.00538 | 2079 ft | 155 kts | 75° |
| 2026-04-23 03:46 | 42.92097 | -87.99223 | 1882 ft | 139 kts | 75° |
| 2026-04-23 03:46 | 42.92392 | -87.98012 | 1699 ft | 132 kts | 76° |
| 2026-04-23 03:46 | 42.92677 | -87.96842 | 1516 ft | 129 kts | 74° |
| 2026-04-23 03:47 | 42.92958 | -87.95687 | 1358 ft | 128 kts | 72° |
| 2026-04-23 03:47 | 42.93239 | -87.94536 | 1188 ft | 127 kts | 72° |
| 2026-04-23 03:47 | 42.93516 | -87.93388 | 1010 ft | 127 kts | 71° |
| 2026-04-23 03:47 | 42.93791 | -87.92244 | 828 ft | 127 kts | 71° |
| 2026-04-23 03:48 | 42.94068 | -87.91111 | 693 ft | 125 kts | 70° |
| 2026-04-23 03:48 | 42.94307 | -87.90145 | 686 ft | 85 kts | 71° |
| 2026-04-23 03:48 | 42.94451 | -87.89555 | 686 ft | 57 kts | 72° |
| 2026-04-23 03:48 | 42.94542 | -87.89177 | 688 ft | 28 kts | 72° |
| 2026-04-23 03:49 | 42.94616 | -87.89119 | 682 ft | 13 kts | 6° |
| 2026-04-23 03:49 | 42.94654 | -87.89191 | 687 ft | 12 kts | 252° |
| 2026-04-23 03:49 | 42.94626 | -87.89305 | 686 ft | 13 kts | 251° |
| 2026-04-23 03:49 | 42.94610 | -87.89428 | 688 ft | 14 kts | 276° |
| 2026-04-23 03:50 | 42.94621 | -87.89562 | 688 ft | 15 kts | 277° |
| 2026-04-23 03:50 | 42.94643 | -87.89640 | 682 ft | 7 kts | 336° |
| 2026-04-23 03:50 | 42.94697 | -87.89636 | 688 ft | 8 kts | 7° |
| 2026-04-23 03:50 | 42.94758 | -87.89625 | 688 ft | 9 kts | 8° |
| 2026-04-23 03:51 | 42.94826 | -87.89612 | 684 ft | 10 kts | 7° |
| 2026-04-23 03:51 | 42.94902 | -87.89600 | 684 ft | 12 kts | 6° |
| 2026-04-23 03:51 | 42.94972 | -87.89628 | 685 ft | 12 kts | 285° |
| 2026-04-23 03:51 | 42.94970 | -87.89740 | 688 ft | 10 kts | 268° |
| 2026-04-23 03:52 | 42.94990 | -87.89827 | 681 ft | 10 kts | 259° |
| 2026-04-23 03:52 | 42.94965 | -87.89919 | 688 ft | 11 kts | 247° |
| 2026-04-23 03:52 | 42.94898 | -87.89967 | 688 ft | 12 kts | 193° |
| 2026-04-23 03:52 | 42.94853 | -87.89972 | 684 ft | 4 kts | 146° |
| 2026-04-23 03:53 | 42.94850 | -87.89935 | 681 ft | 4 kts | 98° |
| 2026-04-23 03:53 | 42.94848 | -87.89920 | 688 ft | 0 kts | 102° |